sensor_id;sensor_type;location;lat;lon;timestamp;P1;durP1;ratioP1;P2;durP2;ratioP2
53927;SDS011;39837;47.630;18.822;2023-03-24T00:00:10;3.97;;;3.67;;
53927;SDS011;39837;47.630;18.822;2023-03-24T00:02:56;3.08;;;2.85;;
53927;SDS011;39837;47.630;18.822;2023-03-24T00:05:43;3.28;;;2.97;;
53927;SDS011;39837;47.630;18.822;2023-03-24T00:08:29;3.60;;;3.30;;
53927;SDS011;39837;47.630;18.822;2023-03-24T00:11:14;5.88;;;3.72;;
53927;SDS011;39837;47.630;18.822;2023-03-24T00:14:01;3.88;;;3.08;;
53927;SDS011;39837;47.630;18.822;2023-03-24T00:16:46;5.45;;;4.00;;
53927;SDS011;39837;47.630;18.822;2023-03-24T00:19:30;4.22;;;3.72;;
53927;SDS011;39837;47.630;18.822;2023-03-24T00:22:17;8.57;;;3.65;;
53927;SDS011;39837;47.630;18.822;2023-03-24T00:25:04;3.78;;;3.40;;
53927;SDS011;39837;47.630;18.822;2023-03-24T00:27:49;5.35;;;4.15;;
53927;SDS011;39837;47.630;18.822;2023-03-24T00:30:33;4.00;;;3.60;;
53927;SDS011;39837;47.630;18.822;2023-03-24T00:33:18;4.65;;;4.22;;
53927;SDS011;39837;47.630;18.822;2023-03-24T00:36:05;5.05;;;4.20;;
53927;SDS011;39837;47.630;18.822;2023-03-24T00:38:51;4.35;;;3.95;;
53927;SDS011;39837;47.630;18.822;2023-03-24T00:41:35;6.03;;;3.78;;
53927;SDS011;39837;47.630;18.822;2023-03-24T00:44:20;4.22;;;3.90;;
53927;SDS011;39837;47.630;18.822;2023-03-24T00:47:03;4.57;;;4.07;;
53927;SDS011;39837;47.630;18.822;2023-03-24T00:49:48;4.07;;;3.75;;
53927;SDS011;39837;47.630;18.822;2023-03-24T00:52:35;3.33;;;3.10;;
53927;SDS011;39837;47.630;18.822;2023-03-24T00:55:20;7.63;;;4.32;;
53927;SDS011;39837;47.630;18.822;2023-03-24T00:58:05;4.75;;;4.25;;
53927;SDS011;39837;47.630;18.822;2023-03-24T01:00:51;3.85;;;3.47;;
53927;SDS011;39837;47.630;18.822;2023-03-24T01:03:36;3.15;;;2.90;;
53927;SDS011;39837;47.630;18.822;2023-03-24T01:06:31;4.03;;;3.40;;
53927;SDS011;39837;47.630;18.822;2023-03-24T01:09:15;4.05;;;3.05;;
53927;SDS011;39837;47.630;18.822;2023-03-24T01:11:59;6.00;;;3.75;;
53927;SDS011;39837;47.630;18.822;2023-03-24T01:14:43;3.45;;;3.20;;
53927;SDS011;39837;47.630;18.822;2023-03-24T01:17:27;5.00;;;3.88;;
53927;SDS011;39837;47.630;18.822;2023-03-24T01:20:12;3.75;;;3.50;;
53927;SDS011;39837;47.630;18.822;2023-03-24T01:22:56;4.63;;;3.67;;
53927;SDS011;39837;47.630;18.822;2023-03-24T01:25:40;4.32;;;4.03;;
53927;SDS011;39837;47.630;18.822;2023-03-24T01:28:28;4.03;;;3.70;;
53927;SDS011;39837;47.630;18.822;2023-03-24T01:31:11;4.75;;;4.32;;
53927;SDS011;39837;47.630;18.822;2023-03-24T01:33:56;4.35;;;3.95;;
53927;SDS011;39837;47.630;18.822;2023-03-24T01:36:40;4.63;;;4.22;;
53927;SDS011;39837;47.630;18.822;2023-03-24T01:39:24;4.30;;;3.90;;
53927;SDS011;39837;47.630;18.822;2023-03-24T01:42:10;4.35;;;3.72;;
53927;SDS011;39837;47.630;18.822;2023-03-24T01:45:32;4.65;;;4.22;;
53927;SDS011;39837;47.630;18.822;2023-03-24T01:51:11;4.07;;;3.05;;
53927;SDS011;39837;47.630;18.822;2023-03-24T01:54:00;4.53;;;3.97;;
53927;SDS011;39837;47.630;18.822;2023-03-24T01:56:49;7.88;;;3.88;;
53927;SDS011;39837;47.630;18.822;2023-03-24T01:59:36;4.47;;;4.07;;
53927;SDS011;39837;47.630;18.822;2023-03-24T02:02:22;6.72;;;4.93;;
53927;SDS011;39837;47.630;18.822;2023-03-24T02:05:08;5.60;;;4.72;;
53927;SDS011;39837;47.630;18.822;2023-03-24T02:07:57;4.97;;;4.28;;
53927;SDS011;39837;47.630;18.822;2023-03-24T02:10:47;8.65;;;4.35;;
53927;SDS011;39837;47.630;18.822;2023-03-24T02:13:31;24.25;;;4.75;;
53927;SDS011;39837;47.630;18.822;2023-03-24T02:22:45;4.63;;;4.30;;
53927;SDS011;39837;47.630;18.822;2023-03-24T02:43:49;6.75;;;4.70;;
53927;SDS011;39837;47.630;18.822;2023-03-24T02:46:46;5.45;;;4.85;;
53927;SDS011;39837;47.630;18.822;2023-03-24T02:49:40;5.97;;;4.95;;
53927;SDS011;39837;47.630;18.822;2023-03-24T02:52:38;4.60;;;4.20;;
53927;SDS011;39837;47.630;18.822;2023-03-24T02:55:24;5.55;;;5.00;;
53927;SDS011;39837;47.630;18.822;2023-03-24T02:58:14;5.38;;;4.90;;
53927;SDS011;39837;47.630;18.822;2023-03-24T03:01:12;6.80;;;5.47;;
53927;SDS011;39837;47.630;18.822;2023-03-24T03:04:02;8.90;;;6.05;;
53927;SDS011;39837;47.630;18.822;2023-03-24T03:06:50;6.03;;;5.43;;
53927;SDS011;39837;47.630;18.822;2023-03-24T03:09:38;6.93;;;5.32;;
53927;SDS011;39837;47.630;18.822;2023-03-24T03:12:24;6.45;;;5.50;;
53927;SDS011;39837;47.630;18.822;2023-03-24T03:15:15;9.73;;;5.88;;
53927;SDS011;39837;47.630;18.822;2023-03-24T03:18:15;8.90;;;5.70;;
53927;SDS011;39837;47.630;18.822;2023-03-24T03:21:07;6.90;;;5.97;;
53927;SDS011;39837;47.630;18.822;2023-03-24T03:23:59;7.82;;;6.22;;
53927;SDS011;39837;47.630;18.822;2023-03-24T03:26:46;6.20;;;5.50;;
53927;SDS011;39837;47.630;18.822;2023-03-24T03:29:32;12.40;;;6.38;;
53927;SDS011;39837;47.630;18.822;2023-03-24T03:32:21;5.15;;;4.70;;
53927;SDS011;39837;47.630;18.822;2023-03-24T03:35:15;8.88;;;6.47;;
53927;SDS011;39837;47.630;18.822;2023-03-24T03:41:23;15.13;;;7.13;;
53927;SDS011;39837;47.630;18.822;2023-03-24T03:44:07;7.25;;;6.38;;
53927;SDS011;39837;47.630;18.822;2023-03-24T03:46:51;10.77;;;7.38;;
53927;SDS011;39837;47.630;18.822;2023-03-24T03:49:35;13.55;;;5.50;;
53927;SDS011;39837;47.630;18.822;2023-03-24T03:52:20;9.00;;;6.93;;
53927;SDS011;39837;47.630;18.822;2023-03-24T03:55:04;9.13;;;8.05;;
53927;SDS011;39837;47.630;18.822;2023-03-24T03:57:49;8.70;;;5.70;;
53927;SDS011;39837;47.630;18.822;2023-03-24T04:00:34;8.48;;;6.82;;
53927;SDS011;39837;47.630;18.822;2023-03-24T04:03:27;10.85;;;7.43;;
53927;SDS011;39837;47.630;18.822;2023-03-24T04:06:35;7.85;;;7.10;;
53927;SDS011;39837;47.630;18.822;2023-03-24T04:27:29;12.15;;;7.68;;
53927;SDS011;39837;47.630;18.822;2023-03-24T04:30:23;8.85;;;6.57;;
53927;SDS011;39837;47.630;18.822;2023-03-24T04:33:23;8.43;;;7.50;;
53927;SDS011;39837;47.630;18.822;2023-03-24T04:36:17;6.40;;;5.80;;
53927;SDS011;39837;47.630;18.822;2023-03-24T04:39:05;9.25;;;7.25;;
53927;SDS011;39837;47.630;18.822;2023-03-24T04:41:49;13.80;;;9.13;;
53927;SDS011;39837;47.630;18.822;2023-03-24T04:44:34;8.77;;;6.30;;
53927;SDS011;39837;47.630;18.822;2023-03-24T04:47:18;8.63;;;6.68;;
53927;SDS011;39837;47.630;18.822;2023-03-24T04:50:05;12.65;;;7.60;;
53927;SDS011;39837;47.630;18.822;2023-03-24T04:52:54;10.02;;;7.07;;
53927;SDS011;39837;47.630;18.822;2023-03-24T04:55:49;8.73;;;7.35;;
53927;SDS011;39837;47.630;18.822;2023-03-24T04:58:35;12.70;;;7.22;;
53927;SDS011;39837;47.630;18.822;2023-03-24T05:01:20;10.35;;;7.45;;
53927;SDS011;39837;47.630;18.822;2023-03-24T05:04:04;26.10;;;8.38;;
53927;SDS011;39837;47.630;18.822;2023-03-24T05:06:49;9.15;;;6.85;;
53927;SDS011;39837;47.630;18.822;2023-03-24T05:09:33;10.60;;;7.93;;
53927;SDS011;39837;47.630;18.822;2023-03-24T05:12:17;11.40;;;7.90;;
53927;SDS011;39837;47.630;18.822;2023-03-24T05:15:01;11.38;;;7.50;;
53927;SDS011;39837;47.630;18.822;2023-03-24T05:17:45;9.75;;;7.53;;
53927;SDS011;39837;47.630;18.822;2023-03-24T05:20:34;9.75;;;6.70;;
53927;SDS011;39837;47.630;18.822;2023-03-24T05:23:18;10.73;;;8.55;;
53927;SDS011;39837;47.630;18.822;2023-03-24T05:26:02;8.65;;;7.30;;
53927;SDS011;39837;47.630;18.822;2023-03-24T05:28:46;9.63;;;7.30;;
53927;SDS011;39837;47.630;18.822;2023-03-24T05:31:30;9.25;;;7.97;;
53927;SDS011;39837;47.630;18.822;2023-03-24T05:34:14;11.65;;;8.23;;
53927;SDS011;39837;47.630;18.822;2023-03-24T05:36:58;8.90;;;7.45;;
53927;SDS011;39837;47.630;18.822;2023-03-24T05:39:43;8.95;;;8.05;;
53927;SDS011;39837;47.630;18.822;2023-03-24T05:42:27;8.13;;;7.05;;
53927;SDS011;39837;47.630;18.822;2023-03-24T05:45:11;11.52;;;8.20;;
53927;SDS011;39837;47.630;18.822;2023-03-24T05:47:55;13.85;;;7.40;;
53927;SDS011;39837;47.630;18.822;2023-03-24T05:50:39;10.20;;;8.18;;
53927;SDS011;39837;47.630;18.822;2023-03-24T05:53:23;19.83;;;8.27;;
53927;SDS011;39837;47.630;18.822;2023-03-24T05:56:08;9.88;;;7.05;;
53927;SDS011;39837;47.630;18.822;2023-03-24T05:58:54;8.50;;;7.30;;
53927;SDS011;39837;47.630;18.822;2023-03-24T06:01:38;12.68;;;8.55;;
53927;SDS011;39837;47.630;18.822;2023-03-24T06:04:25;10.90;;;8.27;;
53927;SDS011;39837;47.630;18.822;2023-03-24T06:07:13;12.00;;;6.82;;
53927;SDS011;39837;47.630;18.822;2023-03-24T06:09:57;8.52;;;7.28;;
53927;SDS011;39837;47.630;18.822;2023-03-24T06:12:45;10.55;;;7.30;;
53927;SDS011;39837;47.630;18.822;2023-03-24T06:15:29;10.57;;;8.48;;
53927;SDS011;39837;47.630;18.822;2023-03-24T06:18:13;8.43;;;6.82;;
53927;SDS011;39837;47.630;18.822;2023-03-24T06:20:57;9.80;;;7.38;;
53927;SDS011;39837;47.630;18.822;2023-03-24T06:23:40;11.07;;;6.82;;
53927;SDS011;39837;47.630;18.822;2023-03-24T06:26:25;25.70;;;7.72;;
53927;SDS011;39837;47.630;18.822;2023-03-24T06:29:13;7.20;;;6.50;;
53927;SDS011;39837;47.630;18.822;2023-03-24T06:32:00;9.05;;;7.60;;
53927;SDS011;39837;47.630;18.822;2023-03-24T06:34:46;7.97;;;6.70;;
53927;SDS011;39837;47.630;18.822;2023-03-24T06:37:30;8.82;;;6.35;;
53927;SDS011;39837;47.630;18.822;2023-03-24T06:40:14;10.07;;;6.72;;
53927;SDS011;39837;47.630;18.822;2023-03-24T06:43:00;7.40;;;6.28;;
53927;SDS011;39837;47.630;18.822;2023-03-24T06:45:44;10.20;;;6.18;;
53927;SDS011;39837;47.630;18.822;2023-03-24T06:48:28;20.83;;;6.22;;
53927;SDS011;39837;47.630;18.822;2023-03-24T06:51:12;8.65;;;6.22;;
53927;SDS011;39837;47.630;18.822;2023-03-24T06:53:56;9.95;;;7.38;;
53927;SDS011;39837;47.630;18.822;2023-03-24T06:56:40;23.00;;;6.75;;
53927;SDS011;39837;47.630;18.822;2023-03-24T06:59:25;6.85;;;6.22;;
53927;SDS011;39837;47.630;18.822;2023-03-24T07:02:10;6.80;;;4.57;;
53927;SDS011;39837;47.630;18.822;2023-03-24T07:04:55;5.00;;;4.53;;
53927;SDS011;39837;47.630;18.822;2023-03-24T07:07:39;8.20;;;5.45;;
53927;SDS011;39837;47.630;18.822;2023-03-24T07:10:24;4.40;;;4.00;;
53927;SDS011;39837;47.630;18.822;2023-03-24T07:13:08;4.15;;;3.88;;
53927;SDS011;39837;47.630;18.822;2023-03-24T07:15:53;5.10;;;4.68;;
53927;SDS011;39837;47.630;18.822;2023-03-24T07:18:37;5.30;;;4.53;;
53927;SDS011;39837;47.630;18.822;2023-03-24T07:21:21;3.58;;;3.25;;
53927;SDS011;39837;47.630;18.822;2023-03-24T07:24:05;4.20;;;3.88;;
53927;SDS011;39837;47.630;18.822;2023-03-24T07:26:49;4.05;;;3.60;;
53927;SDS011;39837;47.630;18.822;2023-03-24T07:29:34;4.32;;;3.92;;
53927;SDS011;39837;47.630;18.822;2023-03-24T07:32:18;3.75;;;3.45;;
53927;SDS011;39837;47.630;18.822;2023-03-24T07:35:07;5.28;;;4.25;;
53927;SDS011;39837;47.630;18.822;2023-03-24T07:37:59;3.35;;;3.17;;
53927;SDS011;39837;47.630;18.822;2023-03-24T07:40:43;3.35;;;3.03;;
53927;SDS011;39837;47.630;18.822;2023-03-24T07:43:27;7.30;;;3.78;;
53927;SDS011;39837;47.630;18.822;2023-03-24T07:46:11;5.03;;;3.33;;
53927;SDS011;39837;47.630;18.822;2023-03-24T07:48:55;4.03;;;3.28;;
53927;SDS011;39837;47.630;18.822;2023-03-24T07:51:40;2.25;;;2.15;;
53927;SDS011;39837;47.630;18.822;2023-03-24T07:54:24;4.78;;;4.18;;
53927;SDS011;39837;47.630;18.822;2023-03-24T07:57:09;4.40;;;3.67;;
53927;SDS011;39837;47.630;18.822;2023-03-24T07:59:53;4.38;;;3.45;;
53927;SDS011;39837;47.630;18.822;2023-03-24T08:02:37;5.07;;;3.83;;
53927;SDS011;39837;47.630;18.822;2023-03-24T08:05:22;5.60;;;3.80;;
53927;SDS011;39837;47.630;18.822;2023-03-24T08:08:07;5.03;;;4.03;;
53927;SDS011;39837;47.630;18.822;2023-03-24T08:10:51;5.32;;;4.07;;
53927;SDS011;39837;47.630;18.822;2023-03-24T08:13:35;5.90;;;5.07;;
53927;SDS011;39837;47.630;18.822;2023-03-24T08:16:19;8.75;;;4.63;;
53927;SDS011;39837;47.630;18.822;2023-03-24T08:19:04;4.28;;;3.67;;
53927;SDS011;39837;47.630;18.822;2023-03-24T08:21:49;3.95;;;3.28;;
53927;SDS011;39837;47.630;18.822;2023-03-24T08:24:33;3.95;;;3.50;;
53927;SDS011;39837;47.630;18.822;2023-03-24T08:27:18;4.93;;;4.45;;
53927;SDS011;39837;47.630;18.822;2023-03-24T08:30:07;3.07;;;2.87;;
53927;SDS011;39837;47.630;18.822;2023-03-24T08:32:55;4.63;;;4.22;;
53927;SDS011;39837;47.630;18.822;2023-03-24T08:35:40;3.92;;;3.63;;
53927;SDS011;39837;47.630;18.822;2023-03-24T08:38:26;4.00;;;3.70;;
53927;SDS011;39837;47.630;18.822;2023-03-24T08:41:13;4.60;;;4.13;;
53927;SDS011;39837;47.630;18.822;2023-03-24T08:43:58;5.53;;;3.88;;
53927;SDS011;39837;47.630;18.822;2023-03-24T08:46:42;4.05;;;3.67;;
53927;SDS011;39837;47.630;18.822;2023-03-24T08:49:26;3.75;;;3.30;;
53927;SDS011;39837;47.630;18.822;2023-03-24T08:52:10;6.80;;;3.65;;
53927;SDS011;39837;47.630;18.822;2023-03-24T08:54:54;3.95;;;3.35;;
53927;SDS011;39837;47.630;18.822;2023-03-24T08:57:38;4.47;;;3.50;;
53927;SDS011;39837;47.630;18.822;2023-03-24T09:00:23;2.92;;;2.72;;
53927;SDS011;39837;47.630;18.822;2023-03-24T09:03:09;4.60;;;4.15;;
53927;SDS011;39837;47.630;18.822;2023-03-24T09:05:56;11.90;;;4.00;;
53927;SDS011;39837;47.630;18.822;2023-03-24T09:08:41;3.72;;;3.42;;
53927;SDS011;39837;47.630;18.822;2023-03-24T09:11:26;2.45;;;2.35;;
53927;SDS011;39837;47.630;18.822;2023-03-24T09:14:10;2.78;;;2.53;;
53927;SDS011;39837;47.630;18.822;2023-03-24T09:16:54;1.70;;;1.60;;
53927;SDS011;39837;47.630;18.822;2023-03-24T09:19:38;2.45;;;2.25;;
53927;SDS011;39837;47.630;18.822;2023-03-24T09:22:22;2.40;;;2.30;;
53927;SDS011;39837;47.630;18.822;2023-03-24T09:25:07;2.17;;;1.92;;
53927;SDS011;39837;47.630;18.822;2023-03-24T09:27:52;2.22;;;2.13;;
53927;SDS011;39837;47.630;18.822;2023-03-24T09:30:36;2.15;;;2.03;;
53927;SDS011;39837;47.630;18.822;2023-03-24T09:33:20;2.95;;;1.70;;
53927;SDS011;39837;47.630;18.822;2023-03-24T09:36:04;2.92;;;1.50;;
53927;SDS011;39837;47.630;18.822;2023-03-24T09:38:49;4.33;;;2.40;;
53927;SDS011;39837;47.630;18.822;2023-03-24T09:41:33;3.97;;;1.75;;
53927;SDS011;39837;47.630;18.822;2023-03-24T09:44:30;1.42;;;1.42;;
53927;SDS011;39837;47.630;18.822;2023-03-24T09:47:25;5.78;;;3.35;;
53927;SDS011;39837;47.630;18.822;2023-03-24T09:50:24;4.15;;;1.75;;
53927;SDS011;39837;47.630;18.822;2023-03-24T09:56:03;1.95;;;1.85;;
53927;SDS011;39837;47.630;18.822;2023-03-24T10:01:47;2.00;;;1.90;;
53927;SDS011;39837;47.630;18.822;2023-03-24T10:04:31;3.53;;;2.17;;
53927;SDS011;39837;47.630;18.822;2023-03-24T10:10:07;1.63;;;1.52;;
53927;SDS011;39837;47.630;18.822;2023-03-24T10:13:02;3.00;;;2.00;;
53927;SDS011;39837;47.630;18.822;2023-03-24T10:15:51;2.00;;;1.90;;
53927;SDS011;39837;47.630;18.822;2023-03-24T10:18:42;3.28;;;2.97;;
53927;SDS011;39837;47.630;18.822;2023-03-24T10:21:43;3.33;;;3.03;;
53927;SDS011;39837;47.630;18.822;2023-03-24T10:24:54;2.20;;;2.10;;
53927;SDS011;39837;47.630;18.822;2023-03-24T10:27:53;3.60;;;3.07;;
53927;SDS011;39837;47.630;18.822;2023-03-24T10:30:39;2.72;;;2.53;;
53927;SDS011;39837;47.630;18.822;2023-03-24T10:33:25;12.27;;;2.47;;
53927;SDS011;39837;47.630;18.822;2023-03-24T10:38:59;2.53;;;2.40;;
53927;SDS011;39837;47.630;18.822;2023-03-24T10:41:43;4.05;;;3.45;;
53927;SDS011;39837;47.630;18.822;2023-03-24T10:44:27;2.00;;;1.90;;
53927;SDS011;39837;47.630;18.822;2023-03-24T10:47:12;3.28;;;3.00;;
53927;SDS011;39837;47.630;18.822;2023-03-24T10:50:00;3.10;;;2.90;;
53927;SDS011;39837;47.630;18.822;2023-03-24T10:52:48;2.85;;;2.58;;
53927;SDS011;39837;47.630;18.822;2023-03-24T10:55:37;2.50;;;2.30;;
53927;SDS011;39837;47.630;18.822;2023-03-24T10:58:29;2.13;;;1.75;;
53927;SDS011;39837;47.630;18.822;2023-03-24T11:01:21;10.18;;;2.80;;
53927;SDS011;39837;47.630;18.822;2023-03-24T11:04:10;3.67;;;2.42;;
53927;SDS011;39837;47.630;18.822;2023-03-24T11:09:46;5.60;;;2.40;;
53927;SDS011;39837;47.630;18.822;2023-03-24T11:12:40;4.53;;;2.85;;
53927;SDS011;39837;47.630;18.822;2023-03-24T11:15:30;1.83;;;1.73;;
53927;SDS011;39837;47.630;18.822;2023-03-24T11:18:15;4.32;;;1.70;;
53927;SDS011;39837;47.630;18.822;2023-03-24T11:21:00;2.17;;;2.03;;
53927;SDS011;39837;47.630;18.822;2023-03-24T11:23:48;4.15;;;2.33;;
53927;SDS011;39837;47.630;18.822;2023-03-24T11:26:34;1.70;;;1.60;;
53927;SDS011;39837;47.630;18.822;2023-03-24T11:29:20;2.40;;;2.22;;
53927;SDS011;39837;47.630;18.822;2023-03-24T11:32:15;2.22;;;2.03;;
53927;SDS011;39837;47.630;18.822;2023-03-24T11:35:07;2.92;;;2.22;;
53927;SDS011;39837;47.630;18.822;2023-03-24T11:37:56;2.00;;;1.75;;
53927;SDS011;39837;47.630;18.822;2023-03-24T11:40:40;2.30;;;2.20;;
53927;SDS011;39837;47.630;18.822;2023-03-24T11:43:35;2.28;;;2.10;;
53927;SDS011;39837;47.630;18.822;2023-03-24T11:46:19;4.20;;;2.20;;
53927;SDS011;39837;47.630;18.822;2023-03-24T11:49:05;1.58;;;1.48;;
53927;SDS011;39837;47.630;18.822;2023-03-24T11:51:52;4.97;;;2.55;;
53927;SDS011;39837;47.630;18.822;2023-03-24T11:54:38;2.25;;;2.13;;
53927;SDS011;39837;47.630;18.822;2023-03-24T11:57:25;3.15;;;2.80;;
53927;SDS011;39837;47.630;18.822;2023-03-24T12:00:26;2.90;;;2.45;;
53927;SDS011;39837;47.630;18.822;2023-03-24T12:15:32;6.32;;;1.90;;
53927;SDS011;39837;47.630;18.822;2023-03-24T12:30:31;7.40;;;2.22;;
53927;SDS011;39837;47.630;18.822;2023-03-24T12:36:56;3.37;;;1.80;;
53927;SDS011;39837;47.630;18.822;2023-03-24T12:42:42;3.72;;;1.73;;
53927;SDS011;39837;47.630;18.822;2023-03-24T12:48:36;1.67;;;1.58;;
53927;SDS011;39837;47.630;18.822;2023-03-24T12:57:45;1.40;;;1.30;;
53927;SDS011;39837;47.630;18.822;2023-03-24T13:00:33;1.00;;;1.00;;
53927;SDS011;39837;47.630;18.822;2023-03-24T13:06:43;1.48;;;1.38;;
53927;SDS011;39837;47.630;18.822;2023-03-24T13:09:35;1.10;;;1.10;;
53927;SDS011;39837;47.630;18.822;2023-03-24T13:12:29;1.75;;;1.40;;
53927;SDS011;39837;47.630;18.822;2023-03-24T13:15:27;1.38;;;1.27;;
53927;SDS011;39837;47.630;18.822;2023-03-24T13:21:12;1.55;;;1.45;;
53927;SDS011;39837;47.630;18.822;2023-03-24T13:23:59;1.15;;;1.15;;
53927;SDS011;39837;47.630;18.822;2023-03-24T13:32:43;1.00;;;1.00;;
53927;SDS011;39837;47.630;18.822;2023-03-24T13:41:21;1.15;;;1.15;;
53927;SDS011;39837;47.630;18.822;2023-03-24T13:44:08;0.90;;;0.90;;
53927;SDS011;39837;47.630;18.822;2023-03-24T13:50:05;1.55;;;1.45;;
53927;SDS011;39837;47.630;18.822;2023-03-24T13:52:49;1.77;;;1.67;;
53927;SDS011;39837;47.630;18.822;2023-03-24T13:55:35;1.30;;;1.27;;
53927;SDS011;39837;47.630;18.822;2023-03-24T13:58:22;0.90;;;0.90;;
53927;SDS011;39837;47.630;18.822;2023-03-24T14:04:42;1.23;;;1.23;;
53927;SDS011;39837;47.630;18.822;2023-03-24T14:15:55;6.03;;;1.13;;
53927;SDS011;39837;47.630;18.822;2023-03-24T14:18:40;1.20;;;1.20;;
53927;SDS011;39837;47.630;18.822;2023-03-24T14:21:28;1.05;;;0.98;;
53927;SDS011;39837;47.630;18.822;2023-03-24T14:24:14;0.90;;;0.90;;
53927;SDS011;39837;47.630;18.822;2023-03-24T14:27:00;2.05;;;1.35;;
53927;SDS011;39837;47.630;18.822;2023-03-24T14:29:48;1.92;;;1.83;;
53927;SDS011;39837;47.630;18.822;2023-03-24T14:32:36;1.10;;;1.10;;
53927;SDS011;39837;47.630;18.822;2023-03-24T14:38:27;1.45;;;0.93;;
53927;SDS011;39837;47.630;18.822;2023-03-24T14:41:15;1.50;;;1.40;;
53927;SDS011;39837;47.630;18.822;2023-03-24T14:44:00;4.55;;;1.30;;
53927;SDS011;39837;47.630;18.822;2023-03-24T14:46:44;3.30;;;1.60;;
53927;SDS011;39837;47.630;18.822;2023-03-24T14:49:30;1.40;;;1.27;;
53927;SDS011;39837;47.630;18.822;2023-03-24T14:52:20;1.25;;;1.25;;
53927;SDS011;39837;47.630;18.822;2023-03-24T14:55:12;2.35;;;1.90;;
53927;SDS011;39837;47.630;18.822;2023-03-24T14:58:17;1.50;;;1.40;;
53927;SDS011;39837;47.630;18.822;2023-03-24T15:01:05;1.63;;;1.52;;
53927;SDS011;39837;47.630;18.822;2023-03-24T15:04:08;1.52;;;1.33;;
53927;SDS011;39837;47.630;18.822;2023-03-24T15:06:53;1.60;;;1.60;;
53927;SDS011;39837;47.630;18.822;2023-03-24T15:09:37;1.08;;;1.08;;
53927;SDS011;39837;47.630;18.822;2023-03-24T15:12:21;1.45;;;1.35;;
53927;SDS011;39837;47.630;18.822;2023-03-24T15:15:12;1.33;;;1.33;;
53927;SDS011;39837;47.630;18.822;2023-03-24T15:17:57;2.30;;;1.38;;
53927;SDS011;39837;47.630;18.822;2023-03-24T15:20:41;1.25;;;1.25;;
53927;SDS011;39837;47.630;18.822;2023-03-24T15:23:28;1.85;;;1.65;;
53927;SDS011;39837;47.630;18.822;2023-03-24T15:26:12;1.70;;;1.60;;
53927;SDS011;39837;47.630;18.822;2023-03-24T15:28:59;1.70;;;1.70;;
53927;SDS011;39837;47.630;18.822;2023-03-24T15:31:44;1.33;;;1.33;;
53927;SDS011;39837;47.630;18.822;2023-03-24T15:37:24;0.93;;;0.93;;
53927;SDS011;39837;47.630;18.822;2023-03-24T15:43:20;1.60;;;1.50;;
53927;SDS011;39837;47.630;18.822;2023-03-24T15:46:04;1.33;;;1.30;;
53927;SDS011;39837;47.630;18.822;2023-03-24T15:48:50;1.50;;;1.40;;
53927;SDS011;39837;47.630;18.822;2023-03-24T15:51:49;1.23;;;1.23;;
53927;SDS011;39837;47.630;18.822;2023-03-24T15:54:39;3.40;;;1.88;;
53927;SDS011;39837;47.630;18.822;2023-03-24T15:57:24;2.47;;;1.60;;
53927;SDS011;39837;47.630;18.822;2023-03-24T16:00:16;3.38;;;1.45;;
53927;SDS011;39837;47.630;18.822;2023-03-24T16:03:02;1.63;;;1.52;;
53927;SDS011;39837;47.630;18.822;2023-03-24T16:05:48;1.35;;;1.35;;
53927;SDS011;39837;47.630;18.822;2023-03-24T16:11:24;1.20;;;1.20;;
53927;SDS011;39837;47.630;18.822;2023-03-24T16:17:01;2.03;;;1.92;;
53927;SDS011;39837;47.630;18.822;2023-03-24T16:19:46;4.63;;;1.63;;
53927;SDS011;39837;47.630;18.822;2023-03-24T16:22:30;1.42;;;1.33;;
53927;SDS011;39837;47.630;18.822;2023-03-24T16:25:14;3.30;;;1.92;;
53927;SDS011;39837;47.630;18.822;2023-03-24T16:27:58;1.35;;;1.27;;
53927;SDS011;39837;47.630;18.822;2023-03-24T16:30:42;1.50;;;1.45;;
53927;SDS011;39837;47.630;18.822;2023-03-24T16:33:27;1.52;;;1.42;;
53927;SDS011;39837;47.630;18.822;2023-03-24T16:36:13;1.20;;;1.20;;
53927;SDS011;39837;47.630;18.822;2023-03-24T16:38:58;1.27;;;1.27;;
53927;SDS011;39837;47.630;18.822;2023-03-24T16:41:44;1.65;;;1.42;;
53927;SDS011;39837;47.630;18.822;2023-03-24T16:44:29;1.13;;;1.13;;
53927;SDS011;39837;47.630;18.822;2023-03-24T16:47:13;0.95;;;0.95;;
53927;SDS011;39837;47.630;18.822;2023-03-24T16:49:58;1.80;;;1.65;;
53927;SDS011;39837;47.630;18.822;2023-03-24T16:52:42;1.00;;;1.00;;
53927;SDS011;39837;47.630;18.822;2023-03-24T16:55:26;1.17;;;1.17;;
53927;SDS011;39837;47.630;18.822;2023-03-24T16:58:14;1.35;;;1.25;;
53927;SDS011;39837;47.630;18.822;2023-03-24T17:00:58;2.10;;;1.40;;
53927;SDS011;39837;47.630;18.822;2023-03-24T17:03:44;1.00;;;1.00;;
53927;SDS011;39837;47.630;18.822;2023-03-24T17:06:32;1.17;;;1.17;;
53927;SDS011;39837;47.630;18.822;2023-03-24T17:09:17;1.23;;;1.23;;
53927;SDS011;39837;47.630;18.822;2023-03-24T17:12:01;1.52;;;1.42;;
53927;SDS011;39837;47.630;18.822;2023-03-24T17:14:47;1.45;;;1.35;;
53927;SDS011;39837;47.630;18.822;2023-03-24T17:17:31;1.40;;;1.40;;
53927;SDS011;39837;47.630;18.822;2023-03-24T17:20:15;4.53;;;2.17;;
53927;SDS011;39837;47.630;18.822;2023-03-24T17:22:59;2.08;;;1.88;;
53927;SDS011;39837;47.630;18.822;2023-03-24T17:25:44;1.45;;;1.35;;
53927;SDS011;39837;47.630;18.822;2023-03-24T17:28:28;1.20;;;1.20;;
53927;SDS011;39837;47.630;18.822;2023-03-24T17:31:12;1.92;;;1.38;;
53927;SDS011;39837;47.630;18.822;2023-03-24T17:33:57;2.33;;;1.73;;
53927;SDS011;39837;47.630;18.822;2023-03-24T17:36:43;2.25;;;2.05;;
53927;SDS011;39837;47.630;18.822;2023-03-24T17:39:27;1.58;;;1.58;;
53927;SDS011;39837;47.630;18.822;2023-03-24T17:42:12;1.65;;;1.55;;
53927;SDS011;39837;47.630;18.822;2023-03-24T17:44:56;1.20;;;1.20;;
53927;SDS011;39837;47.630;18.822;2023-03-24T17:47:40;6.15;;;1.70;;
53927;SDS011;39837;47.630;18.822;2023-03-24T17:50:25;1.98;;;1.88;;
53927;SDS011;39837;47.630;18.822;2023-03-24T17:53:09;2.28;;;1.65;;
53927;SDS011;39837;47.630;18.822;2023-03-24T17:55:57;1.95;;;1.70;;
53927;SDS011;39837;47.630;18.822;2023-03-24T17:58:42;2.10;;;1.40;;
53927;SDS011;39837;47.630;18.822;2023-03-24T18:01:30;1.95;;;1.75;;
53927;SDS011;39837;47.630;18.822;2023-03-24T18:04:17;2.03;;;1.80;;
53927;SDS011;39837;47.630;18.822;2023-03-24T18:07:03;1.77;;;1.70;;
53927;SDS011;39837;47.630;18.822;2023-03-24T18:09:47;2.85;;;2.65;;
53927;SDS011;39837;47.630;18.822;2023-03-24T18:12:31;2.47;;;2.38;;
53927;SDS011;39837;47.630;18.822;2023-03-24T18:15:16;14.68;;;5.72;;
53927;SDS011;39837;47.630;18.822;2023-03-24T18:18:00;3.35;;;3.13;;
53927;SDS011;39837;47.630;18.822;2023-03-24T18:20:45;2.88;;;2.67;;
53927;SDS011;39837;47.630;18.822;2023-03-24T18:23:29;3.75;;;3.28;;
53927;SDS011;39837;47.630;18.822;2023-03-24T18:26:15;5.07;;;3.35;;
53927;SDS011;39837;47.630;18.822;2023-03-24T18:28:59;5.10;;;3.15;;
53927;SDS011;39837;47.630;18.822;2023-03-24T18:31:44;4.03;;;3.25;;
53927;SDS011;39837;47.630;18.822;2023-03-24T18:34:29;3.65;;;3.45;;
53927;SDS011;39837;47.630;18.822;2023-03-24T18:37:14;2.25;;;2.15;;
53927;SDS011;39837;47.630;18.822;2023-03-24T18:39:59;2.22;;;2.13;;
53927;SDS011;39837;47.630;18.822;2023-03-24T18:42:43;2.92;;;2.58;;
53927;SDS011;39837;47.630;18.822;2023-03-24T18:45:28;3.15;;;2.47;;
53927;SDS011;39837;47.630;18.822;2023-03-24T18:48:12;2.47;;;2.28;;
53927;SDS011;39837;47.630;18.822;2023-03-24T18:50:56;1.83;;;1.80;;
53927;SDS011;39837;47.630;18.822;2023-03-24T18:54:02;2.78;;;2.30;;
53927;SDS011;39837;47.630;18.822;2023-03-24T18:56:46;3.03;;;2.10;;
53927;SDS011;39837;47.630;18.822;2023-03-24T18:59:30;2.05;;;2.05;;